sensor_id;sensor_type;location;lat;lon;timestamp;P1;durP1;ratioP1;P2;durP2;ratioP2
74626;SDS011;63132;52.268;5.192;2023-04-25T00:00:37;20.00;;;4.72;;
74626;SDS011;63132;52.268;5.192;2023-04-25T00:03:03;17.43;;;4.83;;
74626;SDS011;63132;52.268;5.192;2023-04-25T00:05:30;18.88;;;5.43;;
74626;SDS011;63132;52.268;5.192;2023-04-25T00:07:56;21.67;;;5.28;;
74626;SDS011;63132;52.268;5.192;2023-04-25T00:10:22;23.88;;;5.13;;
74626;SDS011;63132;52.268;5.192;2023-04-25T00:12:48;14.88;;;4.50;;
74626;SDS011;63132;52.268;5.192;2023-04-25T00:15:14;18.38;;;4.82;;
74626;SDS011;63132;52.268;5.192;2023-04-25T00:17:39;27.15;;;4.97;;
74626;SDS011;63132;52.268;5.192;2023-04-25T00:20:05;18.35;;;4.85;;
74626;SDS011;63132;52.268;5.192;2023-04-25T00:22:33;21.52;;;5.28;;
74626;SDS011;63132;52.268;5.192;2023-04-25T00:24:59;27.35;;;5.07;;
74626;SDS011;63132;52.268;5.192;2023-04-25T00:27:25;22.88;;;4.85;;
74626;SDS011;63132;52.268;5.192;2023-04-25T00:32:16;17.85;;;5.25;;
74626;SDS011;63132;52.268;5.192;2023-04-25T00:34:42;26.33;;;6.17;;
74626;SDS011;63132;52.268;5.192;2023-04-25T00:37:07;19.33;;;5.30;;
74626;SDS011;63132;52.268;5.192;2023-04-25T00:39:32;20.73;;;4.45;;
74626;SDS011;63132;52.268;5.192;2023-04-25T00:41:58;20.92;;;5.07;;
74626;SDS011;63132;52.268;5.192;2023-04-25T00:44:24;27.73;;;4.65;;
74626;SDS011;63132;52.268;5.192;2023-04-25T00:49:15;28.80;;;5.22;;
74626;SDS011;63132;52.268;5.192;2023-04-25T00:51:42;22.50;;;4.72;;
74626;SDS011;63132;52.268;5.192;2023-04-25T00:54:09;24.00;;;4.85;;
74626;SDS011;63132;52.268;5.192;2023-04-25T00:59:00;21.35;;;4.45;;
74626;SDS011;63132;52.268;5.192;2023-04-25T01:01:25;24.90;;;4.80;;
74626;SDS011;63132;52.268;5.192;2023-04-25T01:03:51;28.88;;;4.90;;
74626;SDS011;63132;52.268;5.192;2023-04-25T01:06:19;21.20;;;4.60;;
74626;SDS011;63132;52.268;5.192;2023-04-25T01:08:44;19.80;;;4.70;;
74626;SDS011;63132;52.268;5.192;2023-04-25T01:11:10;18.67;;;4.20;;
74626;SDS011;63132;52.268;5.192;2023-04-25T01:13:35;17.08;;;3.35;;
74626;SDS011;63132;52.268;5.192;2023-04-25T01:16:01;17.40;;;3.47;;
74626;SDS011;63132;52.268;5.192;2023-04-25T01:18:27;19.00;;;3.42;;
74626;SDS011;63132;52.268;5.192;2023-04-25T01:20:53;16.25;;;3.83;;
74626;SDS011;63132;52.268;5.192;2023-04-25T01:23:20;18.50;;;3.28;;
74626;SDS011;63132;52.268;5.192;2023-04-25T01:25:47;19.83;;;3.60;;
74626;SDS011;63132;52.268;5.192;2023-04-25T01:28:14;19.52;;;5.50;;
74626;SDS011;63132;52.268;5.192;2023-04-25T01:30:39;22.40;;;3.90;;
74626;SDS011;63132;52.268;5.192;2023-04-25T01:35:32;17.27;;;4.00;;
74626;SDS011;63132;52.268;5.192;2023-04-25T01:37:57;22.37;;;4.83;;
74626;SDS011;63132;52.268;5.192;2023-04-25T01:40:24;13.25;;;3.40;;
74626;SDS011;63132;52.268;5.192;2023-04-25T01:42:50;16.17;;;3.65;;
74626;SDS011;63132;52.268;5.192;2023-04-25T01:45:16;23.58;;;4.75;;
74626;SDS011;63132;52.268;5.192;2023-04-25T01:47:42;21.55;;;4.65;;
74626;SDS011;63132;52.268;5.192;2023-04-25T01:50:11;16.33;;;3.85;;
74626;SDS011;63132;52.268;5.192;2023-04-25T01:52:37;25.20;;;4.00;;
74626;SDS011;63132;52.268;5.192;2023-04-25T01:55:04;24.45;;;5.03;;
74626;SDS011;63132;52.268;5.192;2023-04-25T01:57:30;27.10;;;4.43;;
74626;SDS011;63132;52.268;5.192;2023-04-25T01:59:59;22.97;;;5.50;;
74626;SDS011;63132;52.268;5.192;2023-04-25T02:02:27;21.67;;;4.25;;
74626;SDS011;63132;52.268;5.192;2023-04-25T02:04:53;18.47;;;4.20;;
74626;SDS011;63132;52.268;5.192;2023-04-25T02:09:44;26.23;;;4.25;;
74626;SDS011;63132;52.268;5.192;2023-04-25T02:12:10;12.75;;;4.00;;
74626;SDS011;63132;52.268;5.192;2023-04-25T02:14:36;19.55;;;4.15;;
74626;SDS011;63132;52.268;5.192;2023-04-25T02:17:01;22.05;;;3.85;;
74626;SDS011;63132;52.268;5.192;2023-04-25T02:19:27;20.77;;;4.40;;
74626;SDS011;63132;52.268;5.192;2023-04-25T02:21:52;14.57;;;5.53;;
74626;SDS011;63132;52.268;5.192;2023-04-25T02:24:17;22.30;;;6.33;;
74626;SDS011;63132;52.268;5.192;2023-04-25T02:26:43;15.77;;;4.13;;
74626;SDS011;63132;52.268;5.192;2023-04-25T02:29:09;17.40;;;4.72;;
74626;SDS011;63132;52.268;5.192;2023-04-25T02:31:34;22.58;;;4.10;;
74626;SDS011;63132;52.268;5.192;2023-04-25T02:34:00;18.58;;;3.50;;
74626;SDS011;63132;52.268;5.192;2023-04-25T02:36:25;24.40;;;4.83;;
74626;SDS011;63132;52.268;5.192;2023-04-25T02:38:51;20.55;;;4.80;;
74626;SDS011;63132;52.268;5.192;2023-04-25T02:41:17;31.42;;;4.30;;
74626;SDS011;63132;52.268;5.192;2023-04-25T02:43:42;18.92;;;4.38;;
74626;SDS011;63132;52.268;5.192;2023-04-25T02:46:08;23.35;;;3.80;;
74626;SDS011;63132;52.268;5.192;2023-04-25T02:48:33;23.73;;;3.72;;
74626;SDS011;63132;52.268;5.192;2023-04-25T02:50:59;13.57;;;3.73;;
74626;SDS011;63132;52.268;5.192;2023-04-25T02:53:24;22.60;;;4.25;;
74626;SDS011;63132;52.268;5.192;2023-04-25T02:55:49;22.20;;;3.97;;
74626;SDS011;63132;52.268;5.192;2023-04-25T02:58:17;24.25;;;4.18;;
74626;SDS011;63132;52.268;5.192;2023-04-25T03:00:42;18.97;;;3.63;;
74626;SDS011;63132;52.268;5.192;2023-04-25T03:03:08;20.03;;;4.27;;
74626;SDS011;63132;52.268;5.192;2023-04-25T03:05:33;20.40;;;3.57;;
74626;SDS011;63132;52.268;5.192;2023-04-25T03:07:58;26.37;;;3.90;;
74626;SDS011;63132;52.268;5.192;2023-04-25T03:10:24;25.37;;;3.73;;
74626;SDS011;63132;52.268;5.192;2023-04-25T03:12:49;29.07;;;4.23;;
74626;SDS011;63132;52.268;5.192;2023-04-25T03:15:14;27.47;;;5.13;;
74626;SDS011;63132;52.268;5.192;2023-04-25T03:17:41;19.35;;;3.03;;
74626;SDS011;63132;52.268;5.192;2023-04-25T03:20:07;13.20;;;3.03;;
74626;SDS011;63132;52.268;5.192;2023-04-25T03:24:58;21.23;;;3.58;;
74626;SDS011;63132;52.268;5.192;2023-04-25T03:27:23;12.40;;;2.90;;
74626;SDS011;63132;52.268;5.192;2023-04-25T03:29:49;16.53;;;3.40;;
74626;SDS011;63132;52.268;5.192;2023-04-25T03:32:14;15.43;;;2.20;;
74626;SDS011;63132;52.268;5.192;2023-04-25T03:34:39;13.07;;;2.67;;
74626;SDS011;63132;52.268;5.192;2023-04-25T03:37:05;22.90;;;4.45;;
74626;SDS011;63132;52.268;5.192;2023-04-25T03:39:31;20.33;;;3.27;;
74626;SDS011;63132;52.268;5.192;2023-04-25T03:41:56;12.07;;;2.67;;
74626;SDS011;63132;52.268;5.192;2023-04-25T03:44:21;13.07;;;2.67;;
74626;SDS011;63132;52.268;5.192;2023-04-25T03:46:47;16.03;;;3.90;;
74626;SDS011;63132;52.268;5.192;2023-04-25T03:49:12;16.63;;;2.83;;
74626;SDS011;63132;52.268;5.192;2023-04-25T03:54:03;22.25;;;2.28;;
74626;SDS011;63132;52.268;5.192;2023-04-25T03:56:29;16.98;;;3.15;;
74626;SDS011;63132;52.268;5.192;2023-04-25T03:58:55;15.98;;;2.60;;
74626;SDS011;63132;52.268;5.192;2023-04-25T04:01:20;14.20;;;2.10;;
74626;SDS011;63132;52.268;5.192;2023-04-25T04:03:45;10.87;;;2.10;;
74626;SDS011;63132;52.268;5.192;2023-04-25T04:06:11;17.87;;;2.53;;
74626;SDS011;63132;52.268;5.192;2023-04-25T04:08:36;13.73;;;2.20;;
74626;SDS011;63132;52.268;5.192;2023-04-25T04:11:01;12.73;;;2.20;;
74626;SDS011;63132;52.268;5.192;2023-04-25T04:13:27;8.77;;;2.00;;
74626;SDS011;63132;52.268;5.192;2023-04-25T04:18:18;12.82;;;2.03;;
74626;SDS011;63132;52.268;5.192;2023-04-25T04:20:44;12.13;;;2.33;;
74626;SDS011;63132;52.268;5.192;2023-04-25T04:23:09;12.65;;;2.05;;
74626;SDS011;63132;52.268;5.192;2023-04-25T04:25:35;19.40;;;2.15;;
74626;SDS011;63132;52.268;5.192;2023-04-25T04:28:01;11.45;;;2.10;;
74626;SDS011;63132;52.268;5.192;2023-04-25T04:30:26;13.50;;;2.27;;
74626;SDS011;63132;52.268;5.192;2023-04-25T04:32:54;12.40;;;3.10;;
74626;SDS011;63132;52.268;5.192;2023-04-25T04:35:20;10.00;;;1.88;;
74626;SDS011;63132;52.268;5.192;2023-04-25T04:37:46;12.60;;;2.17;;
74626;SDS011;63132;52.268;5.192;2023-04-25T04:40:13;11.35;;;2.17;;
74626;SDS011;63132;52.268;5.192;2023-04-25T04:42:40;6.63;;;1.70;;
74626;SDS011;63132;52.268;5.192;2023-04-25T04:45:10;6.72;;;2.45;;
74626;SDS011;63132;52.268;5.192;2023-04-25T04:47:36;7.30;;;1.88;;
74626;SDS011;63132;52.268;5.192;2023-04-25T04:50:06;8.45;;;1.85;;
74626;SDS011;63132;52.268;5.192;2023-04-25T04:52:33;9.23;;;1.92;;
74626;SDS011;63132;52.268;5.192;2023-04-25T04:54:59;9.00;;;2.65;;
74626;SDS011;63132;52.268;5.192;2023-04-25T04:57:25;14.05;;;2.70;;
74626;SDS011;63132;52.268;5.192;2023-04-25T04:59:50;12.35;;;1.88;;
74626;SDS011;63132;52.268;5.192;2023-04-25T05:02:16;9.07;;;1.80;;
74626;SDS011;63132;52.268;5.192;2023-04-25T05:04:41;9.38;;;1.85;;
74626;SDS011;63132;52.268;5.192;2023-04-25T05:07:07;7.93;;;1.70;;
74626;SDS011;63132;52.268;5.192;2023-04-25T05:09:32;12.73;;;2.23;;
74626;SDS011;63132;52.268;5.192;2023-04-25T05:11:57;10.13;;;2.10;;
74626;SDS011;63132;52.268;5.192;2023-04-25T05:14:23;7.43;;;1.67;;
74626;SDS011;63132;52.268;5.192;2023-04-25T05:16:48;8.03;;;1.57;;
74626;SDS011;63132;52.268;5.192;2023-04-25T05:19:13;8.33;;;1.83;;
74626;SDS011;63132;52.268;5.192;2023-04-25T05:21:39;14.45;;;2.13;;
74626;SDS011;63132;52.268;5.192;2023-04-25T05:24:04;10.43;;;1.87;;
74626;SDS011;63132;52.268;5.192;2023-04-25T05:26:30;7.18;;;1.73;;
74626;SDS011;63132;52.268;5.192;2023-04-25T05:28:58;9.98;;;2.45;;
74626;SDS011;63132;52.268;5.192;2023-04-25T05:31:24;9.65;;;1.65;;
74626;SDS011;63132;52.268;5.192;2023-04-25T05:33:50;15.48;;;2.33;;
74626;SDS011;63132;52.268;5.192;2023-04-25T05:36:15;18.37;;;2.40;;
74626;SDS011;63132;52.268;5.192;2023-04-25T05:38:41;10.27;;;1.90;;
74626;SDS011;63132;52.268;5.192;2023-04-25T05:41:07;11.98;;;2.63;;
74626;SDS011;63132;52.268;5.192;2023-04-25T05:43:32;15.23;;;2.67;;
74626;SDS011;63132;52.268;5.192;2023-04-25T05:45:58;14.60;;;1.85;;
74626;SDS011;63132;52.268;5.192;2023-04-25T05:48:23;12.95;;;2.20;;
74626;SDS011;63132;52.268;5.192;2023-04-25T05:50:49;5.97;;;1.88;;
74626;SDS011;63132;52.268;5.192;2023-04-25T05:53:16;11.57;;;2.17;;
74626;SDS011;63132;52.268;5.192;2023-04-25T05:55:41;7.47;;;1.92;;
74626;SDS011;63132;52.268;5.192;2023-04-25T05:58:07;10.77;;;2.10;;
74626;SDS011;63132;52.268;5.192;2023-04-25T06:00:32;9.77;;;2.23;;
74626;SDS011;63132;52.268;5.192;2023-04-25T06:05:23;12.07;;;2.65;;
74626;SDS011;63132;52.268;5.192;2023-04-25T06:07:49;14.18;;;2.50;;
74626;SDS011;63132;52.268;5.192;2023-04-25T06:10:15;12.38;;;2.63;;
74626;SDS011;63132;52.268;5.192;2023-04-25T06:12:40;10.48;;;2.10;;
74626;SDS011;63132;52.268;5.192;2023-04-25T06:15:06;15.63;;;2.63;;
74626;SDS011;63132;52.268;5.192;2023-04-25T06:17:32;10.77;;;2.42;;
74626;SDS011;63132;52.268;5.192;2023-04-25T06:19:58;4.05;;;1.42;;
74626;SDS011;63132;52.268;5.192;2023-04-25T06:22:23;10.70;;;2.10;;
74626;SDS011;63132;52.268;5.192;2023-04-25T06:24:48;13.27;;;2.50;;
74626;SDS011;63132;52.268;5.192;2023-04-25T06:27:14;6.85;;;1.45;;
74626;SDS011;63132;52.268;5.192;2023-04-25T06:29:39;9.75;;;2.25;;
74626;SDS011;63132;52.268;5.192;2023-04-25T06:32:04;6.97;;;1.80;;
74626;SDS011;63132;52.268;5.192;2023-04-25T06:34:30;4.82;;;1.73;;
74626;SDS011;63132;52.268;5.192;2023-04-25T06:36:55;7.57;;;2.00;;
74626;SDS011;63132;52.268;5.192;2023-04-25T06:39:20;12.53;;;2.50;;
74626;SDS011;63132;52.268;5.192;2023-04-25T06:41:48;8.23;;;1.85;;
74626;SDS011;63132;52.268;5.192;2023-04-25T06:44:13;8.38;;;2.00;;
74626;SDS011;63132;52.268;5.192;2023-04-25T06:46:39;11.68;;;2.00;;
74626;SDS011;63132;52.268;5.192;2023-04-25T06:49:04;7.93;;;1.98;;
74626;SDS011;63132;52.268;5.192;2023-04-25T06:51:30;13.63;;;1.90;;
74626;SDS011;63132;52.268;5.192;2023-04-25T06:53:55;8.70;;;1.73;;
74626;SDS011;63132;52.268;5.192;2023-04-25T06:56:21;19.70;;;2.23;;
74626;SDS011;63132;52.268;5.192;2023-04-25T06:58:46;13.18;;;2.20;;
74626;SDS011;63132;52.268;5.192;2023-04-25T07:01:12;12.63;;;1.65;;
74626;SDS011;63132;52.268;5.192;2023-04-25T07:03:37;15.20;;;1.80;;
74626;SDS011;63132;52.268;5.192;2023-04-25T07:06:03;19.23;;;3.85;;
74626;SDS011;63132;52.268;5.192;2023-04-25T07:08:29;14.82;;;1.65;;
74626;SDS011;63132;52.268;5.192;2023-04-25T07:10:54;15.60;;;2.35;;
74626;SDS011;63132;52.268;5.192;2023-04-25T07:13:20;8.13;;;1.73;;
74626;SDS011;63132;52.268;5.192;2023-04-25T07:15:45;11.98;;;1.80;;
74626;SDS011;63132;52.268;5.192;2023-04-25T07:18:13;16.15;;;1.70;;
74626;SDS011;63132;52.268;5.192;2023-04-25T07:20:38;14.52;;;2.38;;
74626;SDS011;63132;52.268;5.192;2023-04-25T07:23:04;19.70;;;2.53;;
74626;SDS011;63132;52.268;5.192;2023-04-25T07:25:29;14.77;;;3.33;;
74626;SDS011;63132;52.268;5.192;2023-04-25T07:27:55;10.00;;;2.25;;
74626;SDS011;63132;52.268;5.192;2023-04-25T07:30:21;19.70;;;2.20;;
74626;SDS011;63132;52.268;5.192;2023-04-25T07:32:49;13.68;;;1.42;;
74626;SDS011;63132;52.268;5.192;2023-04-25T07:35:15;9.02;;;1.70;;
74626;SDS011;63132;52.268;5.192;2023-04-25T07:40:06;11.18;;;1.58;;
74626;SDS011;63132;52.268;5.192;2023-04-25T07:42:33;11.20;;;2.17;;
74626;SDS011;63132;52.268;5.192;2023-04-25T07:44:59;10.10;;;1.90;;
74626;SDS011;63132;52.268;5.192;2023-04-25T07:47:25;11.82;;;2.30;;
74626;SDS011;63132;52.268;5.192;2023-04-25T07:49:50;8.95;;;1.55;;
74626;SDS011;63132;52.268;5.192;2023-04-25T07:52:16;14.52;;;1.45;;
74626;SDS011;63132;52.268;5.192;2023-04-25T07:54:41;5.00;;;1.37;;
74626;SDS011;63132;52.268;5.192;2023-04-25T07:57:07;10.53;;;2.90;;
74626;SDS011;63132;52.268;5.192;2023-04-25T07:59:32;8.67;;;3.73;;
74626;SDS011;63132;52.268;5.192;2023-04-25T08:01:57;8.65;;;1.55;;
74626;SDS011;63132;52.268;5.192;2023-04-25T08:04:23;7.68;;;1.60;;
74626;SDS011;63132;52.268;5.192;2023-04-25T08:06:49;13.00;;;1.67;;
74626;SDS011;63132;52.268;5.192;2023-04-25T08:11:40;13.45;;;1.67;;
74626;SDS011;63132;52.268;5.192;2023-04-25T08:16:32;11.02;;;2.53;;
74626;SDS011;63132;52.268;5.192;2023-04-25T08:18:59;9.32;;;1.70;;
74626;SDS011;63132;52.268;5.192;2023-04-25T08:21:25;9.43;;;2.15;;
74626;SDS011;63132;52.268;5.192;2023-04-25T08:23:51;9.50;;;1.75;;
74626;SDS011;63132;52.268;5.192;2023-04-25T08:26:17;12.38;;;2.17;;
74626;SDS011;63132;52.268;5.192;2023-04-25T08:28:42;7.63;;;1.77;;
74626;SDS011;63132;52.268;5.192;2023-04-25T08:31:08;10.07;;;1.80;;
74626;SDS011;63132;52.268;5.192;2023-04-25T08:33:33;11.77;;;1.73;;
74626;SDS011;63132;52.268;5.192;2023-04-25T08:35:58;9.88;;;2.08;;
74626;SDS011;63132;52.268;5.192;2023-04-25T08:38:24;11.73;;;1.00;;
74626;SDS011;63132;52.268;5.192;2023-04-25T08:40:49;10.07;;;1.23;;
74626;SDS011;63132;52.268;5.192;2023-04-25T08:43:19;13.00;;;1.88;;
74626;SDS011;63132;52.268;5.192;2023-04-25T08:45:45;9.30;;;1.45;;
74626;SDS011;63132;52.268;5.192;2023-04-25T08:48:12;11.63;;;1.70;;
74626;SDS011;63132;52.268;5.192;2023-04-25T08:50:50;15.57;;;2.10;;
74626;SDS011;63132;52.268;5.192;2023-04-25T08:53:18;10.45;;;1.77;;
74626;SDS011;63132;52.268;5.192;2023-04-25T08:55:48;8.23;;;1.20;;
74626;SDS011;63132;52.268;5.192;2023-04-25T08:58:15;13.40;;;1.92;;
74626;SDS011;63132;52.268;5.192;2023-04-25T09:00:41;13.00;;;1.55;;
74626;SDS011;63132;52.268;5.192;2023-04-25T09:03:06;8.27;;;1.38;;
74626;SDS011;63132;52.268;5.192;2023-04-25T09:05:32;5.77;;;1.90;;
74626;SDS011;63132;52.268;5.192;2023-04-25T09:07:58;6.18;;;1.50;;
74626;SDS011;63132;52.268;5.192;2023-04-25T09:10:25;10.27;;;2.28;;
74626;SDS011;63132;52.268;5.192;2023-04-25T09:15:47;7.28;;;1.92;;
74626;SDS011;63132;52.268;5.192;2023-04-25T09:18:21;9.30;;;1.23;;
74626;SDS011;63132;52.268;5.192;2023-04-25T09:20:58;7.07;;;1.15;;
74626;SDS011;63132;52.268;5.192;2023-04-25T09:23:30;9.05;;;1.20;;
74626;SDS011;63132;52.268;5.192;2023-04-25T09:26:03;4.57;;;0.90;;
74626;SDS011;63132;52.268;5.192;2023-04-25T09:28:28;7.60;;;0.97;;
74626;SDS011;63132;52.268;5.192;2023-04-25T09:30:54;11.30;;;1.20;;
74626;SDS011;63132;52.268;5.192;2023-04-25T09:33:30;8.88;;;1.10;;
74626;SDS011;63132;52.268;5.192;2023-04-25T09:36:04;7.45;;;1.20;;
74626;SDS011;63132;52.268;5.192;2023-04-25T09:38:32;5.82;;;1.10;;
74626;SDS011;63132;52.268;5.192;2023-04-25T09:41:05;12.23;;;1.30;;
74626;SDS011;63132;52.268;5.192;2023-04-25T09:43:30;7.18;;;1.15;;
74626;SDS011;63132;52.268;5.192;2023-04-25T09:45:56;3.87;;;1.00;;
74626;SDS011;63132;52.268;5.192;2023-04-25T09:48:25;3.15;;;1.00;;
74626;SDS011;63132;52.268;5.192;2023-04-25T09:53:37;5.85;;;1.35;;
74626;SDS011;63132;52.268;5.192;2023-04-25T09:56:04;5.93;;;1.10;;
74626;SDS011;63132;52.268;5.192;2023-04-25T09:58:31;8.88;;;1.65;;
74626;SDS011;63132;52.268;5.192;2023-04-25T10:00:59;8.88;;;2.10;;
74626;SDS011;63132;52.268;5.192;2023-04-25T10:03:26;9.27;;;1.30;;
74626;SDS011;63132;52.268;5.192;2023-04-25T10:08:18;7.43;;;1.13;;
74626;SDS011;63132;52.268;5.192;2023-04-25T10:10:45;12.00;;;1.92;;
74626;SDS011;63132;52.268;5.192;2023-04-25T10:13:13;5.13;;;1.40;;
74626;SDS011;63132;52.268;5.192;2023-04-25T10:15:39;9.68;;;1.10;;
74626;SDS011;63132;52.268;5.192;2023-04-25T10:18:06;4.78;;;1.40;;
74626;SDS011;63132;52.268;5.192;2023-04-25T10:20:32;4.50;;;1.05;;
74626;SDS011;63132;52.268;5.192;2023-04-25T10:22:58;8.43;;;1.40;;
74626;SDS011;63132;52.268;5.192;2023-04-25T10:25:32;3.00;;;1.00;;
74626;SDS011;63132;52.268;5.192;2023-04-25T10:27:59;9.55;;;1.50;;
74626;SDS011;63132;52.268;5.192;2023-04-25T10:30:25;7.70;;;1.10;;
74626;SDS011;63132;52.268;5.192;2023-04-25T10:32:51;8.00;;;1.20;;
74626;SDS011;63132;52.268;5.192;2023-04-25T10:35:38;6.70;;;1.20;;
74626;SDS011;63132;52.268;5.192;2023-04-25T10:38:04;2.78;;;0.98;;
74626;SDS011;63132;52.268;5.192;2023-04-25T10:40:31;6.20;;;1.27;;
74626;SDS011;63132;52.268;5.192;2023-04-25T10:45:57;9.57;;;1.85;;
74626;SDS011;63132;52.268;5.192;2023-04-25T10:48:28;9.35;;;2.80;;
74626;SDS011;63132;52.268;5.192;2023-04-25T10:51:08;6.63;;;2.00;;
74626;SDS011;63132;52.268;5.192;2023-04-25T10:53:37;8.80;;;1.88;;
74626;SDS011;63132;52.268;5.192;2023-04-25T11:01:40;6.85;;;1.40;;
74626;SDS011;63132;52.268;5.192;2023-04-25T11:04:30;3.80;;;1.20;;
74626;SDS011;63132;52.268;5.192;2023-04-25T11:07:02;5.82;;;1.30;;
74626;SDS011;63132;52.268;5.192;2023-04-25T11:09:35;6.97;;;1.52;;
74626;SDS011;63132;52.268;5.192;2023-04-25T11:12:03;10.07;;;1.55;;
74626;SDS011;63132;52.268;5.192;2023-04-25T11:14:29;9.88;;;1.20;;
74626;SDS011;63132;52.268;5.192;2023-04-25T11:16:55;13.90;;;1.67;;
74626;SDS011;63132;52.268;5.192;2023-04-25T11:19:24;9.18;;;1.50;;
74626;SDS011;63132;52.268;5.192;2023-04-25T11:21:54;7.63;;;1.40;;
74626;SDS011;63132;52.268;5.192;2023-04-25T11:24:25;5.35;;;1.40;;
74626;SDS011;63132;52.268;5.192;2023-04-25T11:27:00;10.48;;;1.73;;
74626;SDS011;63132;52.268;5.192;2023-04-25T11:29:29;8.10;;;1.48;;
74626;SDS011;63132;52.268;5.192;2023-04-25T11:31:56;8.38;;;1.58;;
74626;SDS011;63132;52.268;5.192;2023-04-25T11:34:22;10.60;;;1.75;;
74626;SDS011;63132;52.268;5.192;2023-04-25T11:36:49;16.83;;;2.90;;
74626;SDS011;63132;52.268;5.192;2023-04-25T11:39:15;8.27;;;1.65;;
74626;SDS011;63132;52.268;5.192;2023-04-25T11:41:41;6.68;;;1.40;;
74626;SDS011;63132;52.268;5.192;2023-04-25T11:44:07;9.02;;;1.77;;
74626;SDS011;63132;52.268;5.192;2023-04-25T11:46:35;9.05;;;1.58;;
74626;SDS011;63132;52.268;5.192;2023-04-25T11:49:01;6.15;;;1.55;;
74626;SDS011;63132;52.268;5.192;2023-04-25T11:51:27;8.48;;;1.50;;
74626;SDS011;63132;52.268;5.192;2023-04-25T11:53:52;5.73;;;1.70;;
74626;SDS011;63132;52.268;5.192;2023-04-25T11:56:17;8.47;;;1.40;;
74626;SDS011;63132;52.268;5.192;2023-04-25T11:59:02;4.30;;;1.35;;
74626;SDS011;63132;52.268;5.192;2023-04-25T12:01:30;13.13;;;1.70;;
74626;SDS011;63132;52.268;5.192;2023-04-25T12:06:37;5.97;;;1.20;;
74626;SDS011;63132;52.268;5.192;2023-04-25T12:09:06;4.45;;;1.20;;
74626;SDS011;63132;52.268;5.192;2023-04-25T12:11:40;14.10;;;1.63;;
74626;SDS011;63132;52.268;5.192;2023-04-25T12:14:09;8.82;;;1.27;;
74626;SDS011;63132;52.268;5.192;2023-04-25T12:16:45;11.25;;;1.20;;
74626;SDS011;63132;52.268;5.192;2023-04-25T12:19:15;12.73;;;1.70;;
74626;SDS011;63132;52.268;5.192;2023-04-25T12:21:41;6.18;;;1.25;;
74626;SDS011;63132;52.268;5.192;2023-04-25T12:24:13;5.40;;;1.30;;
74626;SDS011;63132;52.268;5.192;2023-04-25T12:29:19;9.30;;;1.20;;
74626;SDS011;63132;52.268;5.192;2023-04-25T12:31:48;8.75;;;1.58;;
74626;SDS011;63132;52.268;5.192;2023-04-25T12:34:15;4.93;;;1.20;;
74626;SDS011;63132;52.268;5.192;2023-04-25T12:36:41;11.43;;;1.23;;
74626;SDS011;63132;52.268;5.192;2023-04-25T12:39:06;7.55;;;1.30;;
74626;SDS011;63132;52.268;5.192;2023-04-25T12:41:32;7.72;;;1.15;;
74626;SDS011;63132;52.268;5.192;2023-04-25T12:43:57;8.70;;;1.33;;
74626;SDS011;63132;52.268;5.192;2023-04-25T12:46:23;5.97;;;1.00;;
74626;SDS011;63132;52.268;5.192;2023-04-25T12:48:48;9.27;;;1.73;;
74626;SDS011;63132;52.268;5.192;2023-04-25T12:51:14;11.32;;;1.48;;
74626;SDS011;63132;52.268;5.192;2023-04-25T12:53:40;4.82;;;0.90;;
74626;SDS011;63132;52.268;5.192;2023-04-25T12:56:09;6.18;;;0.95;;
74626;SDS011;63132;52.268;5.192;2023-04-25T12:58:34;10.48;;;1.35;;
74626;SDS011;63132;52.268;5.192;2023-04-25T13:01:00;4.38;;;1.00;;
74626;SDS011;63132;52.268;5.192;2023-04-25T13:03:25;6.43;;;1.17;;
74626;SDS011;63132;52.268;5.192;2023-04-25T13:05:51;5.05;;;1.10;;
74626;SDS011;63132;52.268;5.192;2023-04-25T13:08:20;10.88;;;1.58;;
74626;SDS011;63132;52.268;5.192;2023-04-25T13:10:45;8.18;;;1.50;;
74626;SDS011;63132;52.268;5.192;2023-04-25T13:13:12;6.65;;;1.27;;
74626;SDS011;63132;52.268;5.192;2023-04-25T13:15:38;8.10;;;1.50;;
74626;SDS011;63132;52.268;5.192;2023-04-25T13:18:03;6.72;;;1.55;;
74626;SDS011;63132;52.268;5.192;2023-04-25T13:20:30;9.43;;;1.50;;
74626;SDS011;63132;52.268;5.192;2023-04-25T13:22:55;9.90;;;1.55;;
74626;SDS011;63132;52.268;5.192;2023-04-25T13:25:21;5.35;;;1.10;;
74626;SDS011;63132;52.268;5.192;2023-04-25T13:27:47;9.30;;;1.60;;
74626;SDS011;63132;52.268;5.192;2023-04-25T13:30:12;9.20;;;1.50;;
74626;SDS011;63132;52.268;5.192;2023-04-25T13:32:38;7.70;;;1.70;;
74626;SDS011;63132;52.268;5.192;2023-04-25T13:35:04;7.57;;;1.40;;
74626;SDS011;63132;52.268;5.192;2023-04-25T13:37:31;6.72;;;1.30;;
74626;SDS011;63132;52.268;5.192;2023-04-25T13:39:58;7.60;;;1.25;;
74626;SDS011;63132;52.268;5.192;2023-04-25T13:42:25;8.70;;;1.85;;
74626;SDS011;63132;52.268;5.192;2023-04-25T13:44:51;5.32;;;1.42;;
74626;SDS011;63132;52.268;5.192;2023-04-25T13:47:16;10.95;;;1.52;;
74626;SDS011;63132;52.268;5.192;2023-04-25T13:49:41;6.43;;;1.30;;
74626;SDS011;63132;52.268;5.192;2023-04-25T13:52:07;10.93;;;1.60;;
74626;SDS011;63132;52.268;5.192;2023-04-25T13:54:32;6.95;;;1.35;;
74626;SDS011;63132;52.268;5.192;2023-04-25T13:56:58;6.20;;;1.38;;
74626;SDS011;63132;52.268;5.192;2023-04-25T13:59:24;5.70;;;1.20;;
74626;SDS011;63132;52.268;5.192;2023-04-25T14:01:50;8.85;;;1.73;;
74626;SDS011;63132;52.268;5.192;2023-04-25T14:04:16;5.43;;;1.10;;
74626;SDS011;63132;52.268;5.192;2023-04-25T14:06:41;5.87;;;1.30;;
74626;SDS011;63132;52.268;5.192;2023-04-25T14:09:07;6.60;;;1.83;;
74626;SDS011;63132;52.268;5.192;2023-04-25T14:11:35;11.70;;;1.25;;
74626;SDS011;63132;52.268;5.192;2023-04-25T14:14:01;4.85;;;1.23;;
74626;SDS011;63132;52.268;5.192;2023-04-25T14:16:27;6.85;;;1.25;;
74626;SDS011;63132;52.268;5.192;2023-04-25T14:18:53;7.78;;;1.55;;
74626;SDS011;63132;52.268;5.192;2023-04-25T14:21:19;5.75;;;1.10;;
74626;SDS011;63132;52.268;5.192;2023-04-25T14:23:45;6.00;;;1.00;;
74626;SDS011;63132;52.268;5.192;2023-04-25T14:26:11;5.57;;;1.23;;
74626;SDS011;63132;52.268;5.192;2023-04-25T14:28:37;7.25;;;1.27;;
74626;SDS011;63132;52.268;5.192;2023-04-25T14:31:03;5.97;;;1.10;;
74626;SDS011;63132;52.268;5.192;2023-04-25T14:33:28;7.50;;;1.42;;
74626;SDS011;63132;52.268;5.192;2023-04-25T14:35:54;5.85;;;1.10;;
74626;SDS011;63132;52.268;5.192;2023-04-25T14:38:20;7.78;;;1.20;;
74626;SDS011;63132;52.268;5.192;2023-04-25T14:40:50;6.20;;;2.30;;
74626;SDS011;63132;52.268;5.192;2023-04-25T14:43:16;9.77;;;1.65;;
74626;SDS011;63132;52.268;5.192;2023-04-25T14:45:41;5.78;;;1.10;;
74626;SDS011;63132;52.268;5.192;2023-04-25T14:48:07;7.13;;;1.17;;
74626;SDS011;63132;52.268;5.192;2023-04-25T14:50:32;7.07;;;1.45;;
74626;SDS011;63132;52.268;5.192;2023-04-25T14:52:58;8.07;;;1.77;;
74626;SDS011;63132;52.268;5.192;2023-04-25T14:55:25;10.95;;;2.25;;
74626;SDS011;63132;52.268;5.192;2023-04-25T14:57:53;11.05;;;1.48;;
74626;SDS011;63132;52.268;5.192;2023-04-25T15:00:20;8.55;;;1.50;;
74626;SDS011;63132;52.268;5.192;2023-04-25T15:02:46;6.47;;;1.67;;
74626;SDS011;63132;52.268;5.192;2023-04-25T15:07:38;7.75;;;1.30;;
74626;SDS011;63132;52.268;5.192;2023-04-25T15:10:05;6.35;;;1.30;;
74626;SDS011;63132;52.268;5.192;2023-04-25T15:12:31;7.95;;;1.33;;
74626;SDS011;63132;52.268;5.192;2023-04-25T15:14:57;4.93;;;1.13;;
74626;SDS011;63132;52.268;5.192;2023-04-25T15:17:22;5.68;;;1.52;;
74626;SDS011;63132;52.268;5.192;2023-04-25T15:19:47;10.73;;;2.15;;
74626;SDS011;63132;52.268;5.192;2023-04-25T15:22:13;9.20;;;1.70;;
74626;SDS011;63132;52.268;5.192;2023-04-25T15:24:38;7.30;;;1.55;;
74626;SDS011;63132;52.268;5.192;2023-04-25T15:27:04;6.82;;;1.70;;
74626;SDS011;63132;52.268;5.192;2023-04-25T15:29:29;8.70;;;1.70;;